sensor_id;sensor_type;location;lat;lon;timestamp;P1;durP1;ratioP1;P2;durP2;ratioP2
11642;SDS011;5877;50.930;6.918;2023-03-14T00:02:40;5.80;;;1.57;;
11642;SDS011;5877;50.930;6.918;2023-03-14T00:07:33;4.20;;;1.10;;
11642;SDS011;5877;50.930;6.918;2023-03-14T00:12:27;3.83;;;1.33;;
11642;SDS011;5877;50.930;6.918;2023-03-14T00:17:18;6.03;;;1.50;;
11642;SDS011;5877;50.930;6.918;2023-03-14T00:22:10;7.57;;;1.47;;
11642;SDS011;5877;50.930;6.918;2023-03-14T00:27:02;5.47;;;1.20;;
11642;SDS011;5877;50.930;6.918;2023-03-14T00:31:53;4.60;;;1.40;;
11642;SDS011;5877;50.930;6.918;2023-03-14T00:36:45;3.47;;;1.33;;
11642;SDS011;5877;50.930;6.918;2023-03-14T00:41:37;3.80;;;1.20;;
11642;SDS011;5877;50.930;6.918;2023-03-14T00:46:28;5.73;;;1.20;;
11642;SDS011;5877;50.930;6.918;2023-03-14T00:51:20;5.63;;;1.43;;
11642;SDS011;5877;50.930;6.918;2023-03-14T00:56:12;6.97;;;1.27;;
11642;SDS011;5877;50.930;6.918;2023-03-14T01:01:12;5.63;;;1.13;;
11642;SDS011;5877;50.930;6.918;2023-03-14T01:06:19;2.37;;;1.10;;
11642;SDS011;5877;50.930;6.918;2023-03-14T01:11:18;3.13;;;1.00;;
11642;SDS011;5877;50.930;6.918;2023-03-14T01:16:12;2.93;;;1.30;;
11642;SDS011;5877;50.930;6.918;2023-03-14T01:21:12;5.20;;;1.40;;
11642;SDS011;5877;50.930;6.918;2023-03-14T01:26:10;6.00;;;1.50;;
11642;SDS011;5877;50.930;6.918;2023-03-14T01:31:08;6.87;;;1.57;;
11642;SDS011;5877;50.930;6.918;2023-03-14T01:36:02;3.17;;;1.00;;
11642;SDS011;5877;50.930;6.918;2023-03-14T01:40:55;2.90;;;1.00;;
11642;SDS011;5877;50.930;6.918;2023-03-14T01:51:05;2.77;;;0.80;;
11642;SDS011;5877;50.930;6.918;2023-03-14T01:56:01;2.40;;;0.97;;
11642;SDS011;5877;50.930;6.918;2023-03-14T02:00:55;2.03;;;1.07;;
11642;SDS011;5877;50.930;6.918;2023-03-14T02:05:50;4.40;;;1.13;;
11642;SDS011;5877;50.930;6.918;2023-03-14T02:10:45;2.10;;;0.90;;
11642;SDS011;5877;50.930;6.918;2023-03-14T02:15:40;2.23;;;0.93;;
11642;SDS011;5877;50.930;6.918;2023-03-14T02:20:51;3.80;;;1.27;;
11642;SDS011;5877;50.930;6.918;2023-03-14T02:25:48;3.77;;;1.10;;
11642;SDS011;5877;50.930;6.918;2023-03-14T02:30:48;2.93;;;0.67;;
11642;SDS011;5877;50.930;6.918;2023-03-14T02:35:50;1.67;;;0.67;;
11642;SDS011;5877;50.930;6.918;2023-03-14T02:40:49;3.13;;;0.80;;
11642;SDS011;5877;50.930;6.918;2023-03-14T02:45:43;1.23;;;0.50;;
11642;SDS011;5877;50.930;6.918;2023-03-14T02:50:40;2.50;;;0.60;;
11642;SDS011;5877;50.930;6.918;2023-03-14T02:55:32;1.53;;;0.70;;
11642;SDS011;5877;50.930;6.918;2023-03-14T03:00:30;3.43;;;0.70;;
11642;SDS011;5877;50.930;6.918;2023-03-14T03:05:22;2.60;;;0.93;;
11642;SDS011;5877;50.930;6.918;2023-03-14T03:10:14;4.40;;;1.10;;
11642;SDS011;5877;50.930;6.918;2023-03-14T03:15:06;3.13;;;0.90;;
11642;SDS011;5877;50.930;6.918;2023-03-14T03:20:00;2.53;;;0.80;;
11642;SDS011;5877;50.930;6.918;2023-03-14T03:24:52;5.10;;;1.10;;
11642;SDS011;5877;50.930;6.918;2023-03-14T03:29:44;4.00;;;1.27;;
11642;SDS011;5877;50.930;6.918;2023-03-14T03:34:36;5.23;;;1.40;;
11642;SDS011;5877;50.930;6.918;2023-03-14T03:39:27;4.90;;;1.17;;
11642;SDS011;5877;50.930;6.918;2023-03-14T03:44:20;3.53;;;1.43;;
11642;SDS011;5877;50.930;6.918;2023-03-14T03:49:12;6.83;;;1.53;;
11642;SDS011;5877;50.930;6.918;2023-03-14T03:54:04;3.23;;;1.07;;
11642;SDS011;5877;50.930;6.918;2023-03-14T03:58:57;4.97;;;1.37;;
11642;SDS011;5877;50.930;6.918;2023-03-14T04:03:49;5.20;;;1.10;;
11642;SDS011;5877;50.930;6.918;2023-03-14T04:08:42;3.63;;;1.00;;
11642;SDS011;5877;50.930;6.918;2023-03-14T04:13:55;3.70;;;0.87;;
11642;SDS011;5877;50.930;6.918;2023-03-14T04:18:47;4.17;;;1.17;;
11642;SDS011;5877;50.930;6.918;2023-03-14T04:23:39;2.90;;;1.10;;
11642;SDS011;5877;50.930;6.918;2023-03-14T04:28:31;4.17;;;0.93;;
11642;SDS011;5877;50.930;6.918;2023-03-14T04:33:23;2.53;;;0.90;;
11642;SDS011;5877;50.930;6.918;2023-03-14T04:38:17;3.00;;;0.87;;
11642;SDS011;5877;50.930;6.918;2023-03-14T04:43:11;2.47;;;0.53;;
11642;SDS011;5877;50.930;6.918;2023-03-14T04:48:10;2.03;;;1.03;;
11642;SDS011;5877;50.930;6.918;2023-03-14T04:53:02;2.20;;;0.60;;
11642;SDS011;5877;50.930;6.918;2023-03-14T04:57:54;1.40;;;0.60;;
11642;SDS011;5877;50.930;6.918;2023-03-14T05:02:47;1.83;;;0.63;;
11642;SDS011;5877;50.930;6.918;2023-03-14T05:07:52;1.90;;;0.70;;
11642;SDS011;5877;50.930;6.918;2023-03-14T05:12:54;1.40;;;0.50;;
11642;SDS011;5877;50.930;6.918;2023-03-14T05:18:11;2.73;;;0.83;;
11642;SDS011;5877;50.930;6.918;2023-03-14T05:23:26;2.17;;;0.57;;
11642;SDS011;5877;50.930;6.918;2023-03-14T05:28:21;2.57;;;0.50;;
11642;SDS011;5877;50.930;6.918;2023-03-14T05:33:30;1.33;;;0.40;;
11642;SDS011;5877;50.930;6.918;2023-03-14T05:38:37;0.60;;;0.30;;
11642;SDS011;5877;50.930;6.918;2023-03-14T05:43:50;1.33;;;0.70;;
11642;SDS011;5877;50.930;6.918;2023-03-14T05:49:00;1.23;;;0.30;;
11642;SDS011;5877;50.930;6.918;2023-03-14T05:54:10;1.63;;;0.30;;
11642;SDS011;5877;50.930;6.918;2023-03-14T05:59:17;0.90;;;0.20;;
11642;SDS011;5877;50.930;6.918;2023-03-14T06:04:32;0.67;;;0.20;;
11642;SDS011;5877;50.930;6.918;2023-03-14T06:09:24;0.40;;;0.30;;
11642;SDS011;5877;50.930;6.918;2023-03-14T06:14:19;0.70;;;0.40;;
11642;SDS011;5877;50.930;6.918;2023-03-14T06:19:13;0.90;;;0.40;;
11642;SDS011;5877;50.930;6.918;2023-03-14T06:24:06;0.90;;;0.50;;
11642;SDS011;5877;50.930;6.918;2023-03-14T06:29:04;0.53;;;0.40;;
11642;SDS011;5877;50.930;6.918;2023-03-14T06:33:57;1.10;;;0.30;;
11642;SDS011;5877;50.930;6.918;2023-03-14T06:38:53;0.30;;;0.30;;
11642;SDS011;5877;50.930;6.918;2023-03-14T06:43:45;0.80;;;0.50;;
11642;SDS011;5877;50.930;6.918;2023-03-14T06:48:37;1.63;;;0.50;;
11642;SDS011;5877;50.930;6.918;2023-03-14T06:53:30;1.47;;;0.50;;
11642;SDS011;5877;50.930;6.918;2023-03-14T06:58:24;1.23;;;0.50;;
11642;SDS011;5877;50.930;6.918;2023-03-14T07:03:16;1.80;;;0.60;;
11642;SDS011;5877;50.930;6.918;2023-03-14T07:08:12;2.93;;;0.63;;
11642;SDS011;5877;50.930;6.918;2023-03-14T07:13:04;1.70;;;0.63;;
11642;SDS011;5877;50.930;6.918;2023-03-14T07:18:00;2.23;;;0.60;;
11642;SDS011;5877;50.930;6.918;2023-03-14T07:22:53;1.67;;;0.50;;
11642;SDS011;5877;50.930;6.918;2023-03-14T07:27:56;0.90;;;0.60;;
11642;SDS011;5877;50.930;6.918;2023-03-14T07:32:48;2.77;;;0.50;;
11642;SDS011;5877;50.930;6.918;2023-03-14T07:37:40;0.77;;;0.37;;
11642;SDS011;5877;50.930;6.918;2023-03-14T07:42:34;1.27;;;0.43;;
11642;SDS011;5877;50.930;6.918;2023-03-14T07:47:40;2.53;;;0.80;;
11642;SDS011;5877;50.930;6.918;2023-03-14T07:52:31;3.03;;;0.60;;
11642;SDS011;5877;50.930;6.918;2023-03-14T07:57:23;0.83;;;0.40;;
11642;SDS011;5877;50.930;6.918;2023-03-14T08:02:15;1.97;;;0.47;;
11642;SDS011;5877;50.930;6.918;2023-03-14T08:07:07;1.93;;;0.40;;
11642;SDS011;5877;50.930;6.918;2023-03-14T08:11:59;1.67;;;0.33;;
11642;SDS011;5877;50.930;6.918;2023-03-14T08:16:50;1.33;;;0.40;;
11642;SDS011;5877;50.930;6.918;2023-03-14T08:21:43;1.80;;;0.40;;
11642;SDS011;5877;50.930;6.918;2023-03-14T08:26:34;2.73;;;0.30;;
11642;SDS011;5877;50.930;6.918;2023-03-14T08:31:26;1.27;;;0.30;;
11642;SDS011;5877;50.930;6.918;2023-03-14T08:36:19;0.40;;;0.33;;
11642;SDS011;5877;50.930;6.918;2023-03-14T08:41:14;1.30;;;0.30;;
11642;SDS011;5877;50.930;6.918;2023-03-14T08:46:06;1.60;;;0.30;;
11642;SDS011;5877;50.930;6.918;2023-03-14T08:56:04;0.70;;;0.30;;
11642;SDS011;5877;50.930;6.918;2023-03-14T09:00:57;0.43;;;0.20;;
11642;SDS011;5877;50.930;6.918;2023-03-14T09:05:49;1.37;;;0.50;;
11642;SDS011;5877;50.930;6.918;2023-03-14T09:10:42;0.83;;;0.50;;
11642;SDS011;5877;50.930;6.918;2023-03-14T09:15:34;1.50;;;0.50;;
11642;SDS011;5877;50.930;6.918;2023-03-14T09:20:26;0.67;;;0.30;;
11642;SDS011;5877;50.930;6.918;2023-03-14T09:25:18;0.40;;;0.40;;
11642;SDS011;5877;50.930;6.918;2023-03-14T09:30:10;0.70;;;0.57;;
11642;SDS011;5877;50.930;6.918;2023-03-14T09:35:02;0.80;;;0.50;;
11642;SDS011;5877;50.930;6.918;2023-03-14T09:39:54;3.90;;;0.50;;
11642;SDS011;5877;50.930;6.918;2023-03-14T09:44:52;1.30;;;0.50;;
11642;SDS011;5877;50.930;6.918;2023-03-14T09:49:45;0.47;;;0.47;;
11642;SDS011;5877;50.930;6.918;2023-03-14T09:54:38;0.80;;;0.40;;
11642;SDS011;5877;50.930;6.918;2023-03-14T09:59:36;1.47;;;0.60;;
11642;SDS011;5877;50.930;6.918;2023-03-14T10:04:29;0.90;;;0.50;;
11642;SDS011;5877;50.930;6.918;2023-03-14T10:09:23;0.67;;;0.50;;
11642;SDS011;5877;50.930;6.918;2023-03-14T10:14:16;1.30;;;1.00;;
11642;SDS011;5877;50.930;6.918;2023-03-14T10:19:20;1.30;;;1.10;;
11642;SDS011;5877;50.930;6.918;2023-03-14T10:24:19;1.30;;;1.00;;
11642;SDS011;5877;50.930;6.918;2023-03-14T10:29:13;1.47;;;1.23;;
11642;SDS011;5877;50.930;6.918;2023-03-14T10:34:05;2.07;;;1.20;;
11642;SDS011;5877;50.930;6.918;2023-03-14T10:39:18;1.97;;;1.27;;
11642;SDS011;5877;50.930;6.918;2023-03-14T10:44:13;1.77;;;1.20;;
11642;SDS011;5877;50.930;6.918;2023-03-14T10:49:14;1.67;;;1.00;;
11642;SDS011;5877;50.930;6.918;2023-03-14T10:54:20;1.27;;;1.00;;
11642;SDS011;5877;50.930;6.918;2023-03-14T10:59:15;2.83;;;1.00;;
11642;SDS011;5877;50.930;6.918;2023-03-14T11:04:15;2.13;;;1.10;;
11642;SDS011;5877;50.930;6.918;2023-03-14T11:09:32;2.63;;;1.00;;
11642;SDS011;5877;50.930;6.918;2023-03-14T11:14:34;3.30;;;1.03;;
11642;SDS011;5877;50.930;6.918;2023-03-14T11:19:32;1.33;;;0.87;;
11642;SDS011;5877;50.930;6.918;2023-03-14T11:40:29;2.77;;;1.40;;
11642;SDS011;5877;50.930;6.918;2023-03-14T11:45:27;3.60;;;0.87;;
11642;SDS011;5877;50.930;6.918;2023-03-14T11:50:24;1.93;;;0.80;;
11642;SDS011;5877;50.930;6.918;2023-03-14T11:55:31;1.13;;;0.67;;
11642;SDS011;5877;50.930;6.918;2023-03-14T12:00:26;1.93;;;0.90;;
11642;SDS011;5877;50.930;6.918;2023-03-14T12:10:11;1.90;;;1.27;;
11642;SDS011;5877;50.930;6.918;2023-03-14T12:15:04;2.23;;;0.97;;
11642;SDS011;5877;50.930;6.918;2023-03-14T12:25:23;1.57;;;1.40;;
11642;SDS011;5877;50.930;6.918;2023-03-14T12:30:22;1.63;;;1.10;;
11642;SDS011;5877;50.930;6.918;2023-03-14T12:35:37;3.33;;;1.20;;
11642;SDS011;5877;50.930;6.918;2023-03-14T12:40:38;2.17;;;0.80;;
11642;SDS011;5877;50.930;6.918;2023-03-14T12:45:36;3.33;;;1.20;;
11642;SDS011;5877;50.930;6.918;2023-03-14T12:50:35;2.13;;;1.20;;
11642;SDS011;5877;50.930;6.918;2023-03-14T12:55:35;2.13;;;0.93;;
11642;SDS011;5877;50.930;6.918;2023-03-14T13:00:31;1.73;;;1.00;;
11642;SDS011;5877;50.930;6.918;2023-03-14T13:05:25;3.20;;;1.33;;
11642;SDS011;5877;50.930;6.918;2023-03-14T13:10:24;2.20;;;1.00;;
11642;SDS011;5877;50.930;6.918;2023-03-14T13:15:25;2.43;;;0.90;;
11642;SDS011;5877;50.930;6.918;2023-03-14T13:20:28;2.93;;;1.00;;
11642;SDS011;5877;50.930;6.918;2023-03-14T13:25:23;3.10;;;1.00;;
11642;SDS011;5877;50.930;6.918;2023-03-14T13:35:19;1.73;;;0.77;;
11642;SDS011;5877;50.930;6.918;2023-03-14T13:40:24;2.03;;;0.90;;
11642;SDS011;5877;50.930;6.918;2023-03-14T13:45:19;1.53;;;1.10;;
11642;SDS011;5877;50.930;6.918;2023-03-14T13:50:15;3.13;;;0.97;;
11642;SDS011;5877;50.930;6.918;2023-03-14T13:55:18;4.43;;;1.50;;
11642;SDS011;5877;50.930;6.918;2023-03-14T14:00:20;6.67;;;1.33;;
11642;SDS011;5877;50.930;6.918;2023-03-14T14:05:15;8.83;;;1.83;;
11642;SDS011;5877;50.930;6.918;2023-03-14T14:10:08;7.27;;;2.23;;
11642;SDS011;5877;50.930;6.918;2023-03-14T14:15:07;6.60;;;1.70;;
11642;SDS011;5877;50.930;6.918;2023-03-14T14:20:04;6.20;;;2.00;;
11642;SDS011;5877;50.930;6.918;2023-03-14T14:25:00;9.20;;;1.97;;
11642;SDS011;5877;50.930;6.918;2023-03-14T14:29:56;8.63;;;2.47;;
11642;SDS011;5877;50.930;6.918;2023-03-14T14:39:45;10.30;;;2.57;;
11642;SDS011;5877;50.930;6.918;2023-03-14T14:44:37;9.30;;;2.30;;
11642;SDS011;5877;50.930;6.918;2023-03-14T14:49:30;10.10;;;2.17;;
11642;SDS011;5877;50.930;6.918;2023-03-14T14:54:32;7.57;;;1.80;;
11642;SDS011;5877;50.930;6.918;2023-03-14T14:59:26;9.60;;;2.53;;
11642;SDS011;5877;50.930;6.918;2023-03-14T15:04:20;7.33;;;2.00;;
11642;SDS011;5877;50.930;6.918;2023-03-14T15:09:12;7.20;;;2.47;;
11642;SDS011;5877;50.930;6.918;2023-03-14T15:14:03;6.70;;;2.40;;
11642;SDS011;5877;50.930;6.918;2023-03-14T15:18:58;12.23;;;2.63;;
11642;SDS011;5877;50.930;6.918;2023-03-14T15:23:56;8.53;;;2.70;;
11642;SDS011;5877;50.930;6.918;2023-03-14T15:28:48;7.50;;;2.47;;
11642;SDS011;5877;50.930;6.918;2023-03-14T15:33:40;7.33;;;2.53;;
11642;SDS011;5877;50.930;6.918;2023-03-14T15:38:33;10.07;;;2.90;;
11642;SDS011;5877;50.930;6.918;2023-03-14T15:43:24;6.67;;;2.20;;
11642;SDS011;5877;50.930;6.918;2023-03-14T15:48:20;9.33;;;2.83;;
11642;SDS011;5877;50.930;6.918;2023-03-14T15:53:13;10.93;;;2.83;;
11642;SDS011;5877;50.930;6.918;2023-03-14T15:58:05;8.67;;;2.73;;
11642;SDS011;5877;50.930;6.918;2023-03-14T16:02:56;10.17;;;2.80;;
11642;SDS011;5877;50.930;6.918;2023-03-14T16:07:48;9.90;;;2.97;;
11642;SDS011;5877;50.930;6.918;2023-03-14T16:12:40;9.57;;;2.67;;
11642;SDS011;5877;50.930;6.918;2023-03-14T16:17:32;10.80;;;2.70;;
11642;SDS011;5877;50.930;6.918;2023-03-14T16:22:24;6.03;;;1.87;;
11642;SDS011;5877;50.930;6.918;2023-03-14T16:27:16;10.10;;;2.63;;
11642;SDS011;5877;50.930;6.918;2023-03-14T16:32:08;8.37;;;2.77;;
11642;SDS011;5877;50.930;6.918;2023-03-14T16:37:00;9.07;;;2.90;;
11642;SDS011;5877;50.930;6.918;2023-03-14T16:41:52;11.00;;;2.40;;
11642;SDS011;5877;50.930;6.918;2023-03-14T16:46:49;8.67;;;2.40;;
11642;SDS011;5877;50.930;6.918;2023-03-14T16:51:41;5.50;;;2.03;;
11642;SDS011;5877;50.930;6.918;2023-03-14T16:56:33;6.40;;;2.10;;
11642;SDS011;5877;50.930;6.918;2023-03-14T17:01:25;4.43;;;1.53;;
11642;SDS011;5877;50.930;6.918;2023-03-14T17:06:21;6.13;;;1.70;;
11642;SDS011;5877;50.930;6.918;2023-03-14T17:11:15;7.63;;;1.80;;
11642;SDS011;5877;50.930;6.918;2023-03-14T17:16:07;20.77;;;18.00;;
11642;SDS011;5877;50.930;6.918;2023-03-14T17:20:59;6.03;;;2.13;;
11642;SDS011;5877;50.930;6.918;2023-03-14T17:25:51;6.37;;;1.20;;
11642;SDS011;5877;50.930;6.918;2023-03-14T17:30:43;6.00;;;1.90;;
11642;SDS011;5877;50.930;6.918;2023-03-14T17:35:36;6.73;;;2.03;;
11642;SDS011;5877;50.930;6.918;2023-03-14T17:40:27;5.37;;;1.60;;
11642;SDS011;5877;50.930;6.918;2023-03-14T17:45:19;6.33;;;2.13;;
11642;SDS011;5877;50.930;6.918;2023-03-14T17:50:12;4.53;;;1.60;;
11642;SDS011;5877;50.930;6.918;2023-03-14T17:55:04;6.37;;;1.70;;
11642;SDS011;5877;50.930;6.918;2023-03-14T17:59:57;6.13;;;1.70;;
11642;SDS011;5877;50.930;6.918;2023-03-14T18:04:49;9.10;;;1.83;;
11642;SDS011;5877;50.930;6.918;2023-03-14T18:09:44;6.77;;;1.50;;
11642;SDS011;5877;50.930;6.918;2023-03-14T18:14:36;3.80;;;1.43;;
11642;SDS011;5877;50.930;6.918;2023-03-14T18:19:29;6.20;;;1.70;;
11642;SDS011;5877;50.930;6.918;2023-03-14T18:24:20;9.90;;;2.20;;
11642;SDS011;5877;50.930;6.918;2023-03-14T18:29:12;8.00;;;2.23;;
11642;SDS011;5877;50.930;6.918;2023-03-14T18:34:04;5.90;;;2.07;;
11642;SDS011;5877;50.930;6.918;2023-03-14T18:38:56;8.60;;;2.23;;
11642;SDS011;5877;50.930;6.918;2023-03-14T18:43:48;5.23;;;1.77;;
11642;SDS011;5877;50.930;6.918;2023-03-14T18:48:40;10.23;;;2.10;;
11642;SDS011;5877;50.930;6.918;2023-03-14T18:53:32;7.40;;;2.77;;
11642;SDS011;5877;50.930;6.918;2023-03-14T18:58:26;4.10;;;2.10;;
11642;SDS011;5877;50.930;6.918;2023-03-14T19:03:18;8.80;;;2.40;;
11642;SDS011;5877;50.930;6.918;2023-03-14T19:08:10;7.10;;;1.90;;
11642;SDS011;5877;50.930;6.918;2023-03-14T19:13:05;6.03;;;2.00;;
11642;SDS011;5877;50.930;6.918;2023-03-14T19:17:56;7.07;;;2.37;;
11642;SDS011;5877;50.930;6.918;2023-03-14T19:22:48;8.00;;;2.53;;
11642;SDS011;5877;50.930;6.918;2023-03-14T19:27:40;4.80;;;1.63;;
11642;SDS011;5877;50.930;6.918;2023-03-14T19:32:32;6.00;;;2.50;;
11642;SDS011;5877;50.930;6.918;2023-03-14T19:37:23;8.70;;;2.00;;
11642;SDS011;5877;50.930;6.918;2023-03-14T19:42:16;5.97;;;2.80;;
11642;SDS011;5877;50.930;6.918;2023-03-14T19:47:08;7.57;;;2.30;;
11642;SDS011;5877;50.930;6.918;2023-03-14T19:52:00;6.00;;;1.90;;
11642;SDS011;5877;50.930;6.918;2023-03-14T19:56:52;6.60;;;1.53;;
11642;SDS011;5877;50.930;6.918;2023-03-14T20:01:43;4.27;;;1.90;;
11642;SDS011;5877;50.930;6.918;2023-03-14T20:06:39;4.53;;;1.93;;
11642;SDS011;5877;50.930;6.918;2023-03-14T20:11:35;4.93;;;2.17;;
11642;SDS011;5877;50.930;6.918;2023-03-14T20:16:31;4.77;;;2.07;;
11642;SDS011;5877;50.930;6.918;2023-03-14T20:21:26;6.50;;;2.13;;
11642;SDS011;5877;50.930;6.918;2023-03-14T20:26:18;6.40;;;1.90;;
11642;SDS011;5877;50.930;6.918;2023-03-14T20:31:09;6.63;;;3.10;;
11642;SDS011;5877;50.930;6.918;2023-03-14T20:36:01;8.80;;;2.70;;
11642;SDS011;5877;50.930;6.918;2023-03-14T20:40:57;9.03;;;2.20;;
11642;SDS011;5877;50.930;6.918;2023-03-14T20:45:51;5.53;;;1.70;;
11642;SDS011;5877;50.930;6.918;2023-03-14T20:50:44;5.07;;;1.77;;
11642;SDS011;5877;50.930;6.918;2023-03-14T20:55:38;6.80;;;1.97;;
11642;SDS011;5877;50.930;6.918;2023-03-14T21:00:30;6.57;;;1.83;;
11642;SDS011;5877;50.930;6.918;2023-03-14T21:05:22;6.00;;;2.00;;
11642;SDS011;5877;50.930;6.918;2023-03-14T21:10:14;5.80;;;2.27;;
11642;SDS011;5877;50.930;6.918;2023-03-14T21:15:06;8.53;;;2.97;;
11642;SDS011;5877;50.930;6.918;2023-03-14T21:19:59;6.07;;;2.00;;
11642;SDS011;5877;50.930;6.918;2023-03-14T21:24:51;7.70;;;1.70;;
11642;SDS011;5877;50.930;6.918;2023-03-14T21:29:43;9.87;;;2.80;;
11642;SDS011;5877;50.930;6.918;2023-03-14T21:34:36;8.23;;;2.67;;
11642;SDS011;5877;50.930;6.918;2023-03-14T21:39:28;8.67;;;4.50;;
11642;SDS011;5877;50.930;6.918;2023-03-14T21:44:21;8.77;;;2.70;;
11642;SDS011;5877;50.930;6.918;2023-03-14T21:49:13;6.67;;;2.37;;
11642;SDS011;5877;50.930;6.918;2023-03-14T21:54:05;8.67;;;2.23;;
11642;SDS011;5877;50.930;6.918;2023-03-14T21:59:00;9.77;;;2.37;;
11642;SDS011;5877;50.930;6.918;2023-03-14T22:03:53;9.30;;;2.40;;
11642;SDS011;5877;50.930;6.918;2023-03-14T22:08:45;7.53;;;1.90;;
11642;SDS011;5877;50.930;6.918;2023-03-14T22:13:36;6.40;;;2.03;;
11642;SDS011;5877;50.930;6.918;2023-03-14T22:18:28;7.33;;;2.00;;
11642;SDS011;5877;50.930;6.918;2023-03-14T22:23:21;6.93;;;1.90;;
11642;SDS011;5877;50.930;6.918;2023-03-14T22:28:13;11.43;;;2.30;;
11642;SDS011;5877;50.930;6.918;2023-03-14T22:33:06;7.20;;;2.27;;
11642;SDS011;5877;50.930;6.918;2023-03-14T22:37:58;10.47;;;2.33;;
11642;SDS011;5877;50.930;6.918;2023-03-14T22:42:52;13.03;;;2.70;;
11642;SDS011;5877;50.930;6.918;2023-03-14T22:47:44;8.43;;;3.20;;
11642;SDS011;5877;50.930;6.918;2023-03-14T22:52:36;8.97;;;2.90;;
11642;SDS011;5877;50.930;6.918;2023-03-14T22:57:28;7.67;;;3.23;;
11642;SDS011;5877;50.930;6.918;2023-03-14T23:02:19;10.03;;;3.97;;
11642;SDS011;5877;50.930;6.918;2023-03-14T23:07:12;8.17;;;3.17;;
11642;SDS011;5877;50.930;6.918;2023-03-14T23:12:03;6.93;;;3.10;;
11642;SDS011;5877;50.930;6.918;2023-03-14T23:16:56;8.03;;;3.80;;
11642;SDS011;5877;50.930;6.918;2023-03-14T23:21:48;10.07;;;4.10;;
11642;SDS011;5877;50.930;6.918;2023-03-14T23:26:39;12.97;;;5.03;;
11642;SDS011;5877;50.930;6.918;2023-03-14T23:31:31;12.90;;;5.10;;
11642;SDS011;5877;50.930;6.918;2023-03-14T23:36:23;8.17;;;5.40;;
11642;SDS011;5877;50.930;6.918;2023-03-14T23:41:15;9.60;;;5.07;;
11642;SDS011;5877;50.930;6.918;2023-03-14T23:46:07;8.97;;;3.40;;
11642;SDS011;5877;50.930;6.918;2023-03-14T23:51:00;9.33;;;3.33;;
11642;SDS011;5877;50.930;6.918;2023-03-14T23:55:54;10.90;;;3.37;;
